createdAt,value
2019-03-08T00:00:11.593Z,995.49
2019-03-08T00:01:11.534Z,995.47
2019-03-08T00:02:11.536Z,995.43
2019-03-08T00:03:11.519Z,995.44
2019-03-08T00:04:11.529Z,995.39
2019-03-08T00:05:11.515Z,995.42
2019-03-08T00:06:11.524Z,995.46
2019-03-08T00:07:11.523Z,995.50
2019-03-08T00:08:11.497Z,995.53
2019-03-08T00:09:11.480Z,995.50
2019-03-08T00:10:11.470Z,995.47
2019-03-08T00:11:11.485Z,995.50
2019-03-08T00:12:11.467Z,995.48
2019-03-08T00:13:11.468Z,995.48
2019-03-08T00:14:11.483Z,995.51
2019-03-08T00:15:11.482Z,995.43
2019-03-08T00:16:11.528Z,995.38
2019-03-08T00:17:11.429Z,995.35
2019-03-08T00:18:11.421Z,995.35
2019-03-08T00:19:11.418Z,995.35
2019-03-08T00:20:11.410Z,995.26
2019-03-08T00:21:11.403Z,995.27
2019-03-08T00:22:11.398Z,995.30
2019-03-08T00:23:11.410Z,995.23
2019-03-08T00:24:11.388Z,995.26
2019-03-08T00:25:11.376Z,995.16
2019-03-08T00:26:11.371Z,995.18
2019-03-08T00:27:11.366Z,995.18
2019-03-08T00:28:11.350Z,995.14
2019-03-08T00:29:11.348Z,995.15
2019-03-08T00:30:11.345Z,995.16
2019-03-08T00:31:11.335Z,995.24
2019-03-08T00:32:11.337Z,995.18
2019-03-08T00:33:11.324Z,995.12
2019-03-08T00:34:11.318Z,995.13
2019-03-08T00:35:11.308Z,995.16
2019-03-08T00:36:11.304Z,995.15
2019-03-08T00:37:11.296Z,995.16
2019-03-08T00:38:11.296Z,995.20
2019-03-08T00:39:11.284Z,995.11
2019-03-08T00:40:11.278Z,995.16
2019-03-08T00:41:11.270Z,995.20
2019-03-08T00:42:11.269Z,995.16
2019-03-08T00:43:11.256Z,995.12
2019-03-08T00:44:11.249Z,995.08
2019-03-08T00:45:11.248Z,995.07
2019-03-08T00:46:11.240Z,995.08
2019-03-08T00:47:11.229Z,995.10
2019-03-08T00:48:11.223Z,995.18
2019-03-08T00:49:11.221Z,995.15
2019-03-08T00:50:11.210Z,995.12
2019-03-08T00:51:11.202Z,995.15
2019-03-08T00:52:11.200Z,995.18
2019-03-08T00:53:11.189Z,995.09
2019-03-08T00:54:11.182Z,995.09
2019-03-08T00:55:11.180Z,995.12
2019-03-08T00:56:11.170Z,995.10
2019-03-08T00:57:11.166Z,995.13
2019-03-08T00:58:11.157Z,995.16
2019-03-08T00:59:11.149Z,995.11
2019-03-08T01:00:11.142Z,995.18
2019-03-08T01:01:11.131Z,995.12
2019-03-08T01:02:11.129Z,995.04
2019-03-08T01:03:11.127Z,995.08
2019-03-08T01:04:11.116Z,995.14
2019-03-08T01:05:11.105Z,995.17
2019-03-08T01:06:11.101Z,995.23
2019-03-08T01:07:11.118Z,995.14
2019-03-08T01:08:11.087Z,995.17
2019-03-08T01:09:11.102Z,995.15
2019-03-08T01:10:11.072Z,995.09
2019-03-08T01:11:11.067Z,995.09
2019-03-08T01:12:11.062Z,995.06
2019-03-08T01:13:11.052Z,995.03
2019-03-08T01:14:11.043Z,995.04
2019-03-08T01:15:11.037Z,995.01
2019-03-08T01:16:11.033Z,995.03
2019-03-08T01:17:11.028Z,995.02
2019-03-08T01:18:11.018Z,994.99
2019-03-08T01:19:11.013Z,994.98
2019-03-08T01:20:11.003Z,995.01
2019-03-08T01:21:10.999Z,994.93
2019-03-08T01:22:10.987Z,995.01
2019-03-08T01:23:10.983Z,994.99
2019-03-08T01:24:10.976Z,994.96
2019-03-08T01:25:10.973Z,994.89
2019-03-08T01:26:10.964Z,994.93
2019-03-08T01:27:10.962Z,994.87
2019-03-08T01:28:10.949Z,994.81
2019-03-08T01:29:10.945Z,994.86
2019-03-08T01:30:10.936Z,994.81
2019-03-08T01:31:10.928Z,994.85
2019-03-08T01:32:10.924Z,994.83
2019-03-08T01:33:10.912Z,994.77
2019-03-08T01:34:10.906Z,994.74
2019-03-08T01:35:10.900Z,994.78
2019-03-08T01:36:10.892Z,994.72
2019-03-08T01:37:10.885Z,994.67
2019-03-08T01:38:10.941Z,994.74
2019-03-08T01:39:10.875Z,994.71
2019-03-08T01:40:10.865Z,994.67
2019-03-08T01:41:10.857Z,994.72
2019-03-08T01:42:10.852Z,994.65
2019-03-08T01:43:10.845Z,994.64
2019-03-08T01:44:10.839Z,994.73
2019-03-08T01:45:10.829Z,994.68
2019-03-08T01:46:10.826Z,994.60
2019-03-08T01:47:10.817Z,994.59
2019-03-08T01:48:10.810Z,994.61
2019-03-08T01:49:10.801Z,994.62
2019-03-08T01:50:10.801Z,994.69
2019-03-08T01:51:10.786Z,994.64
2019-03-08T01:52:10.781Z,994.56
2019-03-08T01:53:10.773Z,994.62
2019-03-08T01:54:10.767Z,994.67
2019-03-08T01:55:10.762Z,994.71
2019-03-08T01:56:10.756Z,994.68
2019-03-08T01:57:10.744Z,994.74
2019-03-08T01:58:10.736Z,994.62
2019-03-08T01:59:10.730Z,994.64
2019-03-08T02:00:10.820Z,994.65
2019-03-08T02:01:10.720Z,994.60
2019-03-08T02:02:10.709Z,994.67
2019-03-08T02:03:10.703Z,994.61
2019-03-08T02:04:10.704Z,994.63
2019-03-08T02:05:10.687Z,994.57
2019-03-08T02:06:10.683Z,994.59
2019-03-08T02:07:10.670Z,994.57
2019-03-08T02:08:10.668Z,994.68
2019-03-08T02:09:10.658Z,994.56
2019-03-08T02:10:10.663Z,994.54
2019-03-08T02:11:10.647Z,994.51
2019-03-08T02:12:10.640Z,994.47
2019-03-08T02:13:10.630Z,994.45
2019-03-08T02:14:10.626Z,994.46
2019-03-08T02:15:10.618Z,994.50
2019-03-08T02:16:10.611Z,994.40
2019-03-08T02:17:10.601Z,994.44
2019-03-08T02:18:10.598Z,994.40
2019-03-08T02:19:10.590Z,994.44
2019-03-08T02:20:10.581Z,994.42
2019-03-08T02:21:10.574Z,994.40
2019-03-08T02:22:10.570Z,994.32
2019-03-08T02:23:10.564Z,994.29
2019-03-08T02:24:10.559Z,994.36
2019-03-08T02:25:10.546Z,994.28
2019-03-08T02:26:10.538Z,994.26
2019-03-08T02:27:10.540Z,994.29
2019-03-08T02:28:10.522Z,994.31
2019-03-08T02:29:10.518Z,994.23
2019-03-08T02:30:10.512Z,994.25
2019-03-08T02:31:10.503Z,994.29
2019-03-08T02:32:10.494Z,994.29
2019-03-08T02:33:10.496Z,994.33
2019-03-08T02:34:10.483Z,994.27
2019-03-08T02:35:10.477Z,994.24
2019-03-08T02:36:10.470Z,994.31
2019-03-08T02:37:10.457Z,994.30
2019-03-08T02:38:10.457Z,994.29
2019-03-08T02:39:10.448Z,994.29
2019-03-08T02:40:10.439Z,994.38
2019-03-08T02:41:10.432Z,994.37
2019-03-08T02:42:10.426Z,994.28
2019-03-08T02:43:10.416Z,994.26
2019-03-08T02:44:10.410Z,994.30
2019-03-08T02:45:10.402Z,994.28
2019-03-08T02:46:10.399Z,994.34
2019-03-08T02:47:10.386Z,994.30
2019-03-08T02:48:10.384Z,994.24
2019-03-08T02:49:10.371Z,994.27
2019-03-08T02:50:10.368Z,994.32
2019-03-08T02:51:10.360Z,994.27
2019-03-08T02:52:10.357Z,994.25
2019-03-08T02:53:10.349Z,994.28
2019-03-08T02:54:10.338Z,994.25
2019-03-08T02:55:10.330Z,994.22
2019-03-08T02:56:10.324Z,994.27
2019-03-08T02:57:10.319Z,994.27
2019-03-08T02:58:10.311Z,994.14
2019-03-08T02:59:10.301Z,994.12
2019-03-08T03:00:10.295Z,994.14
2019-03-08T03:01:10.290Z,994.06
2019-03-08T03:02:10.280Z,994.14
2019-03-08T03:03:10.274Z,994.07
2019-03-08T03:04:10.265Z,994.06
2019-03-08T03:05:10.261Z,994.16
2019-03-08T03:06:10.250Z,994.11
2019-03-08T03:07:10.245Z,994.12
2019-03-08T03:08:10.240Z,994.06
2019-03-08T03:09:10.229Z,994.13
2019-03-08T03:10:10.225Z,994.08
2019-03-08T03:11:10.217Z,994.11
2019-03-08T03:12:10.207Z,994.21
2019-03-08T03:13:10.202Z,994.12
2019-03-08T03:14:10.195Z,994.09
2019-03-08T03:15:10.188Z,994.07
2019-03-08T03:16:10.181Z,994.06
2019-03-08T03:17:10.175Z,994.03
2019-03-08T03:18:10.167Z,994.04
2019-03-08T03:19:10.160Z,993.98
2019-03-08T03:20:10.154Z,994.05
2019-03-08T03:21:10.143Z,993.99
2019-03-08T03:22:10.139Z,993.95
2019-03-08T03:23:10.129Z,994.09
2019-03-08T03:24:10.125Z,993.97
2019-03-08T03:25:10.116Z,994.01
2019-03-08T03:26:10.110Z,993.91
2019-03-08T03:27:10.102Z,993.89
2019-03-08T03:28:10.096Z,993.94
2019-03-08T03:29:10.087Z,993.97
2019-03-08T03:30:10.084Z,994.02
2019-03-08T03:31:10.075Z,993.98
2019-03-08T03:32:10.066Z,994.04
2019-03-08T03:33:10.058Z,993.96
2019-03-08T03:34:10.058Z,993.99
2019-03-08T03:35:10.044Z,993.97
2019-03-08T03:36:10.048Z,994.02
2019-03-08T03:37:10.032Z,994.03
2019-03-08T03:38:10.027Z,993.98
2019-03-08T03:39:10.022Z,993.92
2019-03-08T03:40:10.009Z,993.91
2019-03-08T03:41:10.008Z,993.93
2019-03-08T03:42:09.995Z,993.84
2019-03-08T03:43:09.988Z,993.92
2019-03-08T03:44:09.980Z,993.87
2019-03-08T03:45:09.975Z,993.90
2019-03-08T03:46:09.969Z,993.90
2019-03-08T03:47:09.961Z,993.87
2019-03-08T03:48:09.954Z,993.90
2019-03-08T03:49:09.945Z,993.94
2019-03-08T03:50:09.941Z,993.90
2019-03-08T03:51:09.932Z,993.91
2019-03-08T03:52:09.925Z,993.89
2019-03-08T03:53:09.921Z,993.85
2019-03-08T03:54:09.917Z,993.85
2019-03-08T03:55:09.932Z,993.88
2019-03-08T03:56:09.900Z,993.87
2019-03-08T03:57:09.890Z,993.99
2019-03-08T03:58:09.889Z,993.78
2019-03-08T03:59:09.881Z,993.88
2019-03-08T04:00:11.757Z,993.98
2019-03-08T04:01:09.862Z,993.90
2019-03-08T04:02:09.855Z,993.91
2019-03-08T04:03:09.848Z,993.92
2019-03-08T04:04:09.842Z,993.97
2019-03-08T04:05:09.838Z,993.86
2019-03-08T04:06:09.826Z,993.84
2019-03-08T04:07:09.829Z,993.89
2019-03-08T04:08:09.813Z,993.94
2019-03-08T04:09:09.804Z,993.84
2019-03-08T04:10:09.798Z,993.85
2019-03-08T04:11:09.797Z,993.84
2019-03-08T04:12:09.786Z,993.72
2019-03-08T04:13:09.777Z,993.72
2019-03-08T04:14:09.775Z,993.79
2019-03-08T04:15:09.764Z,993.74
2019-03-08T04:16:09.758Z,993.83
2019-03-08T04:17:09.762Z,993.81
2019-03-08T04:18:09.744Z,993.78
2019-03-08T04:19:09.736Z,993.76
2019-03-08T04:20:09.728Z,993.75
2019-03-08T04:21:09.723Z,993.70
2019-03-08T04:22:09.716Z,993.72
2019-03-08T04:23:09.708Z,993.71
2019-03-08T04:24:09.712Z,993.77
2019-03-08T04:25:09.693Z,993.70
2019-03-08T04:26:09.689Z,993.80
2019-03-08T04:27:09.679Z,993.80
2019-03-08T04:28:09.676Z,993.72
2019-03-08T04:29:09.665Z,993.69
2019-03-08T04:30:09.659Z,993.71
2019-03-08T04:31:09.654Z,993.67
2019-03-08T04:32:09.646Z,993.71
2019-03-08T04:33:09.638Z,993.76
2019-03-08T04:34:09.631Z,993.62
2019-03-08T04:35:09.626Z,993.68
2019-03-08T04:36:09.614Z,993.65
2019-03-08T04:37:09.610Z,993.60
2019-03-08T04:38:09.605Z,993.53
2019-03-08T04:39:09.599Z,993.59
2019-03-08T04:40:09.595Z,993.54
2019-03-08T04:41:09.581Z,993.65
2019-03-08T04:42:09.592Z,993.62
2019-03-08T04:43:09.571Z,993.56
2019-03-08T04:44:09.566Z,993.58
2019-03-08T04:45:09.556Z,993.53
2019-03-08T04:46:09.550Z,993.61
2019-03-08T04:47:09.541Z,993.60
2019-03-08T04:48:09.535Z,993.64
2019-03-08T04:49:09.528Z,993.63
2019-03-08T04:50:09.522Z,993.61
2019-03-08T04:51:09.515Z,993.61
2019-03-08T04:52:09.507Z,993.60
2019-03-08T04:53:09.505Z,993.62
2019-03-08T04:54:09.496Z,993.60
2019-03-08T04:55:09.488Z,993.59
2019-03-08T04:56:09.481Z,993.60
2019-03-08T04:57:09.477Z,993.54
2019-03-08T04:58:09.465Z,993.55
2019-03-08T04:59:09.465Z,993.52
2019-03-08T05:00:09.455Z,993.52
2019-03-08T05:01:09.451Z,993.49
2019-03-08T05:02:09.439Z,993.55
2019-03-08T05:03:09.435Z,993.52
2019-03-08T05:04:09.426Z,993.46
2019-03-08T05:05:09.426Z,993.53
2019-03-08T05:06:09.412Z,993.34
2019-03-08T05:07:09.404Z,993.45
2019-03-08T05:08:09.399Z,993.43
2019-03-08T05:09:09.394Z,993.46
2019-03-08T05:10:09.382Z,993.41
2019-03-08T05:11:09.380Z,993.48
2019-03-08T05:12:09.372Z,993.43
2019-03-08T05:13:09.368Z,993.33
2019-03-08T05:14:09.359Z,993.41
2019-03-08T05:15:09.356Z,993.44
2019-03-08T05:16:09.352Z,993.40
2019-03-08T05:17:09.335Z,993.38
2019-03-08T05:18:09.326Z,993.38
2019-03-08T05:19:09.331Z,993.29
2019-03-08T05:20:09.318Z,993.37
2019-03-08T05:21:09.311Z,993.42
2019-03-08T05:22:09.304Z,993.43
2019-03-08T05:23:09.296Z,993.43
2019-03-08T05:24:09.293Z,993.48
2019-03-08T05:25:09.288Z,993.40
2019-03-08T05:26:09.285Z,993.48
2019-03-08T05:27:09.269Z,993.53
2019-03-08T05:28:09.266Z,993.51
2019-03-08T05:29:09.262Z,993.58
2019-03-08T05:30:09.254Z,993.50
2019-03-08T05:31:09.248Z,993.55
2019-03-08T05:32:09.237Z,993.54
2019-03-08T05:33:09.231Z,993.47
2019-03-08T05:34:09.225Z,993.47
2019-03-08T05:35:09.221Z,993.49
2019-03-08T05:36:09.211Z,993.49
2019-03-08T05:37:09.213Z,993.56
2019-03-08T05:38:09.198Z,993.55
2019-03-08T05:39:09.194Z,993.49
2019-03-08T05:40:09.182Z,993.47
2019-03-08T05:41:09.178Z,993.52
2019-03-08T05:42:09.171Z,993.50
2019-03-08T05:43:09.169Z,993.47
2019-03-08T05:44:09.156Z,993.52
2019-03-08T05:45:09.151Z,993.42
2019-03-08T05:46:09.143Z,993.51
2019-03-08T05:47:09.138Z,993.45
2019-03-08T05:48:09.129Z,993.57
2019-03-08T05:49:09.125Z,993.59
2019-03-08T05:50:09.118Z,993.58
2019-03-08T05:51:09.112Z,993.53
2019-03-08T05:52:09.103Z,993.49
2019-03-08T05:53:09.100Z,993.56
2019-03-08T05:54:09.090Z,993.69
2019-03-08T05:55:09.083Z,993.69
2019-03-08T05:56:09.079Z,993.60
2019-03-08T05:57:09.072Z,993.63
2019-03-08T05:58:09.063Z,993.71
2019-03-08T05:59:09.061Z,993.62
2019-03-08T06:00:09.049Z,993.69
2019-03-08T06:01:09.045Z,993.66
2019-03-08T06:02:09.037Z,993.72
2019-03-08T06:03:09.031Z,993.70
2019-03-08T06:04:09.031Z,993.66
2019-03-08T06:05:09.019Z,993.84
2019-03-08T06:06:09.009Z,993.68
2019-03-08T06:07:09.005Z,993.88
2019-03-08T06:08:08.998Z,993.92
2019-03-08T06:09:08.995Z,993.92
2019-03-08T06:10:08.987Z,993.74
2019-03-08T06:11:08.979Z,993.91
2019-03-08T06:12:08.973Z,993.86
2019-03-08T06:13:08.967Z,993.96
2019-03-08T06:14:08.956Z,993.80
2019-03-08T06:15:08.957Z,993.84
2019-03-08T06:16:08.944Z,994.02
2019-03-08T06:17:08.940Z,993.98
2019-03-08T06:18:08.934Z,994.05
2019-03-08T06:19:08.928Z,994.00
2019-03-08T06:20:08.921Z,993.98
2019-03-08T06:21:08.916Z,994.07
2019-03-08T06:22:08.909Z,994.00
2019-03-08T06:23:08.906Z,994.05
2019-03-08T06:24:08.893Z,994.15
2019-03-08T06:25:08.892Z,994.12
2019-03-08T06:26:08.880Z,994.10
2019-03-08T06:27:08.877Z,994.18
2019-03-08T06:28:08.869Z,994.23
2019-03-08T06:29:08.861Z,994.18
2019-03-08T06:30:08.855Z,994.18
2019-03-08T06:31:08.851Z,994.12
2019-03-08T06:32:08.840Z,994.06
2019-03-08T06:33:08.843Z,994.30
2019-03-08T06:34:08.832Z,994.42
2019-03-08T06:35:08.826Z,994.41
2019-03-08T06:36:08.815Z,994.42
2019-03-08T06:37:08.810Z,994.55
2019-03-08T06:38:08.804Z,994.47
2019-03-08T06:39:08.797Z,994.48
2019-03-08T06:40:08.797Z,994.52
2019-03-08T06:41:08.783Z,994.50
2019-03-08T06:42:08.775Z,994.62
2019-03-08T06:43:08.771Z,994.69
2019-03-08T06:44:08.764Z,994.49
2019-03-08T06:45:08.763Z,994.71
2019-03-08T06:46:08.751Z,994.64
2019-03-08T06:47:08.745Z,994.64
2019-03-08T06:48:08.738Z,994.78
2019-03-08T06:49:08.864Z,994.78
2019-03-08T06:50:08.726Z,994.75
2019-03-08T06:51:08.720Z,994.70
2019-03-08T06:52:08.716Z,994.73
2019-03-08T06:53:08.704Z,994.91
2019-03-08T06:54:08.700Z,994.82
2019-03-08T06:55:08.696Z,994.88
2019-03-08T06:56:08.688Z,994.87
2019-03-08T06:57:08.680Z,994.89
2019-03-08T06:58:08.674Z,994.92
2019-03-08T06:59:08.666Z,994.88
2019-03-08T07:00:08.665Z,994.96
2019-03-08T07:01:08.661Z,994.86
2019-03-08T07:02:08.648Z,994.98
2019-03-08T07:03:08.645Z,994.97
2019-03-08T07:04:08.632Z,994.99
2019-03-08T07:05:08.632Z,994.97
2019-03-08T07:06:08.626Z,994.93
2019-03-08T07:07:08.612Z,994.99
2019-03-08T07:08:08.609Z,995.04
2019-03-08T07:09:08.615Z,995.04
2019-03-08T07:10:08.597Z,995.03
2019-03-08T07:11:08.592Z,995.29
2019-03-08T07:12:08.585Z,995.00
2019-03-08T07:13:08.579Z,995.09
2019-03-08T07:14:08.572Z,994.98
2019-03-08T07:15:08.563Z,995.06
2019-03-08T07:16:13.134Z,995.18
2019-03-08T07:17:08.553Z,995.07
2019-03-08T07:18:12.548Z,995.16
2019-03-08T07:19:08.539Z,995.19
2019-03-08T07:20:08.533Z,995.26
2019-03-08T07:21:08.532Z,995.23
2019-03-08T07:22:08.521Z,995.18
2019-03-08T07:23:08.514Z,995.28
2019-03-08T07:24:08.508Z,995.27
2019-03-08T07:25:08.503Z,995.25
2019-03-08T07:26:08.494Z,995.29
2019-03-08T07:27:08.493Z,995.24
2019-03-08T07:28:08.484Z,995.21
2019-03-08T07:29:08.475Z,995.46
2019-03-08T07:30:08.466Z,995.41
2019-03-08T07:31:08.468Z,995.35
2019-03-08T07:32:08.459Z,995.50
2019-03-08T07:33:08.453Z,995.44
2019-03-08T07:34:08.445Z,995.50
2019-03-08T07:35:08.436Z,995.51
2019-03-08T07:36:08.431Z,995.46
2019-03-08T07:37:08.425Z,995.54
2019-03-08T07:38:08.419Z,995.56
2019-03-08T07:39:08.409Z,995.58
2019-03-08T07:40:08.408Z,995.54
2019-03-08T07:41:08.396Z,995.54
2019-03-08T07:42:08.395Z,995.66
2019-03-08T07:43:08.389Z,995.63
2019-03-08T07:44:08.381Z,995.55
2019-03-08T07:45:08.371Z,995.78
2019-03-08T07:46:08.366Z,995.73
2019-03-08T07:47:08.364Z,995.65
2019-03-08T07:48:08.353Z,995.67
2019-03-08T07:49:08.344Z,995.79
2019-03-08T07:50:08.340Z,995.76
2019-03-08T07:51:08.332Z,995.72
2019-03-08T07:52:08.332Z,995.85
2019-03-08T07:53:08.320Z,995.89
2019-03-08T07:54:08.317Z,995.85
2019-03-08T07:55:08.313Z,995.83
2019-03-08T07:56:08.303Z,995.90
2019-03-08T07:57:08.293Z,995.78
2019-03-08T07:58:08.292Z,995.76
2019-03-08T07:59:08.283Z,995.81
2019-03-08T08:00:08.277Z,995.96
2019-03-08T08:01:08.269Z,995.80
2019-03-08T08:02:08.263Z,996.00
2019-03-08T08:03:08.264Z,995.97
2019-03-08T08:04:08.251Z,996.08
2019-03-08T08:05:08.245Z,996.10
2019-03-08T08:06:08.260Z,996.20
2019-03-08T08:07:08.233Z,996.24
2019-03-08T08:08:08.227Z,996.15
2019-03-08T08:09:08.217Z,996.12
2019-03-08T08:10:08.246Z,996.24
2019-03-08T08:11:08.204Z,996.32
2019-03-08T08:12:08.201Z,996.52
2019-03-08T08:13:08.199Z,996.32
2019-03-08T08:14:08.188Z,996.30
2019-03-08T08:15:08.180Z,996.35
2019-03-08T08:16:08.178Z,996.48
2019-03-08T08:17:08.168Z,996.42
2019-03-08T08:18:08.172Z,996.46
2019-03-08T08:19:08.154Z,996.57
2019-03-08T08:20:16.054Z,996.60
2019-03-08T08:21:08.145Z,996.62
2019-03-08T08:22:08.126Z,996.48
2019-03-08T08:23:08.130Z,996.56
2019-03-08T08:24:08.123Z,996.59
2019-03-08T08:25:08.118Z,996.64
2019-03-08T08:26:08.111Z,996.65
2019-03-08T08:27:08.103Z,996.65
2019-03-08T08:28:08.100Z,996.76
2019-03-08T08:29:08.092Z,996.78
2019-03-08T08:30:08.093Z,996.73
2019-03-08T08:31:08.078Z,996.83
2019-03-08T08:32:08.072Z,996.89
2019-03-08T08:33:08.066Z,996.76
2019-03-08T08:34:08.061Z,996.96
2019-03-08T08:35:08.052Z,996.94
2019-03-08T08:36:08.044Z,997.00
2019-03-08T08:37:08.042Z,996.99
2019-03-08T08:38:08.036Z,997.08
2019-03-08T08:39:08.028Z,997.20
2019-03-08T08:40:08.023Z,997.18
2019-03-08T08:41:08.016Z,997.26
2019-03-08T08:42:08.009Z,997.18
2019-03-08T08:43:08.004Z,997.21
2019-03-08T08:44:07.996Z,997.15
2019-03-08T08:45:07.989Z,997.25
2019-03-08T08:46:07.985Z,997.28
2019-03-08T08:47:07.979Z,997.19
2019-03-08T08:48:07.972Z,997.40
2019-03-08T08:49:07.969Z,997.46
2019-03-08T08:50:07.958Z,997.39
2019-03-08T08:51:07.952Z,997.37
2019-03-08T08:52:07.947Z,997.32
2019-03-08T08:53:07.942Z,997.32
2019-03-08T08:54:07.933Z,997.41
2019-03-08T08:55:07.937Z,997.38
2019-03-08T08:56:07.924Z,997.54
2019-03-08T08:57:07.917Z,997.48
2019-03-08T08:58:07.909Z,997.49
2019-03-08T08:59:07.908Z,997.51
2019-03-08T09:00:07.897Z,997.51
2019-03-08T09:01:07.890Z,997.59
2019-03-08T09:02:07.883Z,997.61
2019-03-08T09:03:07.883Z,997.64
2019-03-08T09:04:07.878Z,997.65
2019-03-08T09:05:07.869Z,997.56
2019-03-08T09:06:07.862Z,997.54
2019-03-08T09:07:07.859Z,997.63
2019-03-08T09:08:07.850Z,997.61
2019-03-08T09:09:07.845Z,997.62
2019-03-08T09:10:07.835Z,997.61
2019-03-08T09:11:07.834Z,997.73
2019-03-08T09:12:07.827Z,997.72
2019-03-08T09:13:07.820Z,997.73
2019-03-08T09:14:07.811Z,997.72
2019-03-08T09:15:07.805Z,997.82
2019-03-08T09:16:07.802Z,997.80
2019-03-08T09:17:07.795Z,997.73
2019-03-08T09:18:07.792Z,997.80
2019-03-08T09:19:07.785Z,997.86
2019-03-08T09:20:07.776Z,997.92
2019-03-08T09:21:07.777Z,997.92
2019-03-08T09:22:07.766Z,997.95
2019-03-08T09:23:07.759Z,998.01
2019-03-08T09:24:07.755Z,997.94
2019-03-08T09:25:07.745Z,998.12
2019-03-08T09:26:07.741Z,998.21
2019-03-08T09:27:07.752Z,998.20
2019-03-08T09:28:07.733Z,998.26
2019-03-08T09:29:07.730Z,998.33
2019-03-08T09:30:07.706Z,998.29
2019-03-08T09:31:07.704Z,998.23
2019-03-08T09:32:07.699Z,998.34
2019-03-08T09:33:07.692Z,998.29
2019-03-08T09:34:07.686Z,998.47
2019-03-08T09:35:08.347Z,998.54
2019-03-08T09:36:07.682Z,998.42
2019-03-08T09:37:07.703Z,998.52
2019-03-08T09:38:07.687Z,998.55
2019-03-08T09:39:07.661Z,998.64
2019-03-08T09:40:07.659Z,998.71
2019-03-08T09:41:07.650Z,998.69
2019-03-08T09:42:07.646Z,998.75
2019-03-08T09:43:07.638Z,998.75
2019-03-08T09:44:07.634Z,998.70
2019-03-08T09:45:07.630Z,998.77
2019-03-08T09:46:07.622Z,998.80
2019-03-08T09:47:07.614Z,998.82
2019-03-08T09:48:07.610Z,998.86
2019-03-08T09:49:07.605Z,998.86
2019-03-08T09:50:07.601Z,998.94
2019-03-08T09:51:07.594Z,998.93
2019-03-08T09:52:07.592Z,998.95
2019-03-08T09:53:07.586Z,998.94
2019-03-08T09:54:07.577Z,999.02
2019-03-08T09:55:07.574Z,998.98
2019-03-08T09:56:07.565Z,999.11
2019-03-08T09:57:07.555Z,998.99
2019-03-08T09:58:07.555Z,999.11
2019-03-08T09:59:07.553Z,999.07
2019-03-08T10:00:07.542Z,999.24
2019-03-08T10:01:16.226Z,999.24
2019-03-08T10:02:07.531Z,999.13
2019-03-08T10:03:07.530Z,999.09
2019-03-08T10:04:07.521Z,999.25
2019-03-08T10:05:07.514Z,999.30
2019-03-08T10:06:07.514Z,999.31
2019-03-08T10:07:07.503Z,999.39
2019-03-08T10:08:07.496Z,999.41
2019-03-08T10:09:07.490Z,999.40
2019-03-08T10:10:07.486Z,999.51
2019-03-08T10:11:07.486Z,999.69
2019-03-08T10:12:07.477Z,999.57
2019-03-08T10:13:07.470Z,999.60
2019-03-08T10:14:07.466Z,999.65
2019-03-08T10:15:07.461Z,999.59
2019-03-08T10:16:07.453Z,999.71
2019-03-08T10:17:07.444Z,999.67
2019-03-08T10:18:07.443Z,999.80
2019-03-08T10:19:07.434Z,999.75
2019-03-08T10:20:07.429Z,999.78
2019-03-08T10:21:07.423Z,999.81
2019-03-08T10:22:07.421Z,999.93
2019-03-08T10:23:07.411Z,999.83
2019-03-08T10:24:07.410Z,999.89
2019-03-08T10:25:07.391Z,999.91
2019-03-08T10:26:07.394Z,999.91
2019-03-08T10:27:07.389Z,999.92
2019-03-08T10:28:07.383Z,999.89
2019-03-08T10:29:07.384Z,1000.03
2019-03-08T10:30:07.378Z,1000.01
2019-03-08T10:31:07.364Z,1000.04
2019-03-08T10:32:07.360Z,1000.04
2019-03-08T10:33:07.358Z,1000.07
2019-03-08T10:34:07.344Z,999.98
2019-03-08T10:35:07.341Z,999.96
2019-03-08T10:36:07.355Z,1000.16
2019-03-08T10:37:07.330Z,1000.12
2019-03-08T10:38:07.321Z,1000.20
2019-03-08T10:39:07.321Z,1000.28
2019-03-08T10:40:07.311Z,1000.24
2019-03-08T10:41:07.306Z,1000.26
2019-03-08T10:42:07.299Z,1000.44
2019-03-08T10:43:07.297Z,1000.45
2019-03-08T10:44:12.961Z,1000.47
2019-03-08T10:45:07.286Z,1000.33
2019-03-08T10:46:15.518Z,1000.50
2019-03-08T10:47:07.269Z,1000.53
2019-03-08T10:48:07.264Z,1000.68
2019-03-08T10:49:07.259Z,1000.82
2019-03-08T10:50:07.254Z,1000.49
2019-03-08T10:51:07.248Z,1000.83
2019-03-08T10:52:07.241Z,1000.67
2019-03-08T10:53:07.236Z,1000.89
2019-03-08T10:54:07.227Z,1000.86
2019-03-08T10:55:07.237Z,1000.91
2019-03-08T10:56:07.220Z,1000.94
2019-03-08T10:57:07.213Z,1001.02
2019-03-08T10:58:07.206Z,1000.97
2019-03-08T10:59:07.200Z,1001.02
2019-03-08T11:00:07.194Z,1001.02
2019-03-08T11:01:07.186Z,1001.05
2019-03-08T11:02:07.187Z,1001.07
2019-03-08T11:03:07.174Z,1001.19
2019-03-08T11:04:07.170Z,1001.13
2019-03-08T11:05:07.163Z,1001.20
2019-03-08T11:06:07.159Z,1001.25
2019-03-08T11:07:07.149Z,1001.16
2019-03-08T11:08:08.988Z,1001.21
2019-03-08T11:09:07.137Z,1001.20
2019-03-08T11:10:07.129Z,1001.32
2019-03-08T11:11:07.123Z,1001.29
2019-03-08T11:12:07.121Z,1001.32
2019-03-08T11:13:07.111Z,1001.35
2019-03-08T11:14:07.109Z,1001.38
2019-03-08T11:15:07.101Z,1001.39
2019-03-08T11:16:07.095Z,1001.45
2019-03-08T11:17:07.086Z,1001.46
2019-03-08T11:18:07.080Z,1001.48
2019-03-08T11:19:08.947Z,1001.51
2019-03-08T11:20:07.070Z,1001.51
2019-03-08T11:21:07.063Z,1001.52
2019-03-08T11:22:07.060Z,1001.58
2019-03-08T11:23:07.050Z,1001.52
2019-03-08T11:24:07.044Z,1001.69
2019-03-08T11:25:08.371Z,1001.65
2019-03-08T11:26:07.033Z,1001.70
2019-03-08T11:27:07.026Z,1001.77
2019-03-08T11:28:07.019Z,1001.71
2019-03-08T11:29:07.014Z,1001.78
2019-03-08T11:30:07.004Z,1001.74
2019-03-08T11:31:07.001Z,1001.76
2019-03-08T11:32:06.995Z,1001.70
2019-03-08T11:33:06.989Z,1001.70
2019-03-08T11:34:06.982Z,1001.86
2019-03-08T11:35:06.975Z,1001.79
2019-03-08T11:36:06.971Z,1001.82
2019-03-08T11:37:06.962Z,1001.90
2019-03-08T11:38:06.955Z,1001.93
2019-03-08T11:39:06.960Z,1001.98
2019-03-08T11:40:06.943Z,1001.91
2019-03-08T11:41:06.943Z,1001.97
2019-03-08T11:42:06.930Z,1001.95
2019-03-08T11:43:06.925Z,1002.06
2019-03-08T11:44:06.917Z,1002.03
2019-03-08T11:45:06.910Z,1001.99
2019-03-08T11:46:06.903Z,1002.08
2019-03-08T11:47:06.902Z,1002.10
2019-03-08T11:48:06.891Z,1002.01
2019-03-08T11:49:06.883Z,1002.02
2019-03-08T11:50:06.876Z,1002.07
2019-03-08T11:51:06.872Z,1002.06
2019-03-08T11:52:06.870Z,1002.11
2019-03-08T11:53:06.859Z,1002.00
2019-03-08T11:54:06.854Z,1002.12
2019-03-08T11:55:06.851Z,1002.09
2019-03-08T11:56:06.839Z,1002.11
2019-03-08T11:57:06.833Z,1002.16
2019-03-08T11:58:06.826Z,1002.19
2019-03-08T11:59:06.819Z,1002.23
2019-03-08T12:00:06.811Z,1002.15
2019-03-08T12:01:06.806Z,1002.27
2019-03-08T12:02:06.796Z,1002.26
2019-03-08T12:03:06.791Z,1002.31
2019-03-08T12:04:06.785Z,1002.38
2019-03-08T12:05:06.779Z,1002.21
2019-03-08T12:06:06.773Z,1002.41
2019-03-08T12:07:06.763Z,1002.33
2019-03-08T12:08:06.759Z,1002.30
2019-03-08T12:09:06.750Z,1002.34
2019-03-08T12:10:06.744Z,1002.32
2019-03-08T12:11:06.746Z,1002.32
2019-03-08T12:12:06.733Z,1002.29
2019-03-08T12:13:06.726Z,1002.28
2019-03-08T12:14:06.720Z,1002.29
2019-03-08T12:15:06.715Z,1002.50
2019-03-08T12:16:06.711Z,1002.31
2019-03-08T12:17:06.703Z,1002.20
2019-03-08T12:18:06.695Z,1002.35
2019-03-08T12:19:06.695Z,1002.23
2019-03-08T12:20:06.686Z,1002.34
2019-03-08T12:21:06.679Z,1002.34
2019-03-08T12:22:06.669Z,1002.46
2019-03-08T12:23:06.668Z,1002.26
2019-03-08T12:24:06.658Z,1002.37